Jim Hamilton L.B. Owens Airport
KCUB : rendu visible

Aérodrome :











RETROUVEZ-NOUS SUR...

 
LOGIN :

S'inscrire | Disclaimer

   EN    FR    IT 

 









Légende :    VFR   VFR Marginal   IFR   IFR Intensif   IFR Très Intensif
Visi : 
Plafond : 
>= 8 km
>= 3000ft
5 à 8 km
1000 à 3000 ft
1500m à 5 km
500 à 1000 ft
800 à 1500m
200 à 500 ft
< 800m
< 200 ft
Symboles :   Orages  Brouillard  Fortes neiges  Fortes précipitations  Vent > 20 kt






- Altitude de l'aérodrome : 193 ft


KCUB - Jim Hamilton L.B. Owens

DERNIER METAR :
  • 261653Z AUTO VRB04KT 10SM FEW015 SCT090 BKN110 23/18 A3012 RMK AO2 SLP197 T02280183

METARs EXPIRÉS :
  • 261553Z AUTO VRB03KT 10SM FEW012 BKN100 22/19 A3013 RMK AO2 RAE01 SLP200 P0000 T02170189
  • 261453Z AUTO VRB04KT 10SM -RA FEW011 BKN100 OVC110 21/19 A3013 RMK AO2 RAB1359 SLP202 P0001 6//// T02110189 51007

TAF KCUB
Valide du 26 à 18h jusqu'au 27 à 18h UTC


261736Z 2618/2718 07005KT P6SM VCSH SCT020 BKN100
TEMPO 2618/2622 -RA BKN040
FM270300 VRB03KT P6SM BKN025 OVC080
FM270800 06004KT 6SM BR VCSH OVC007
FM271400 05007KT P6SM -RA SCT008 OVC015
FIR KZJX / Amérique du Nord



MET'MAP, la Météo Aéronautique d'un coup d'oeil ! - Copyright ORBIFLY Décembre 2007 - Disclaimer

ORBIFLY MET'MAP TEAM :

Programmation & Développement : Alexandra Zaïnal
Sur une idée originale de : Baudouin d'Aumeries
Assistance à la programmation : Marc-Olivier Méhu
Soutien technique & logistique : Manuel Goepfert

Contact : metmap@orbifly.com




SOURCES & CREDITS :

   NOAA       Earth
Advisory